Time;durP1;ratioP1;P1;durP2;ratioP2;P2;SDS_P1;SDS_P2;PMS_P1;PMS_P2;Temp;Humidity;BMP_temperature;BMP_pressure;BME280_temperature;BME280_humidity;BME280_pressure;Samples;Min_cycle;Max_cycle;Signal;HPM_P1;HPM_P2
2023/12/16 05:02:48;;;;;;;1.63;1.40;;;6.20;97.30;;;;;;5021597;23;20480;-86
2023/12/16 05:05:14;;;;;;;2.17;2.00;;;6.20;97.30;;;;;;5005271;28;21144;-88
2023/12/16 05:07:39;;;;;;;2.30;2.10;;;6.30;97.30;;;;;;4994820;28;20710;-86
2023/12/16 05:10:10;;;;;;;1.10;1.03;;;6.30;97.30;;;;;;4994971;28;20188;-87
2023/12/16 05:12:36;;;;;;;1.57;1.47;;;6.30;97.30;;;;;;4982581;28;20213;-86
2023/12/16 05:15:03;;;;;;;5.73;2.20;;;6.30;97.30;;;;;;4992661;28;20922;-86
2023/12/16 05:17:29;;;;;;;3.40;3.20;;;6.30;97.30;;;;;;4975074;28;20500;-84
2023/12/16 05:19:54;;;;;;;1.77;1.67;;;6.30;97.30;;;;;;4975233;28;20517;-86
2023/12/16 05:22:20;;;;;;;1.00;0.90;;;6.30;97.30;;;;;;4974968;28;20209;-85
2023/12/16 05:24:48;;;;;;;1.10;1.03;;;6.30;97.30;;;;;;4975011;28;20190;-86
2023/12/16 05:27:13;;;;;;;3.63;3.43;;;6.30;97.30;;;;;;4992855;28;20175;-86
2023/12/16 05:29:39;;;;;;;1.43;1.33;;;6.30;97.30;;;;;;4974929;28;21013;-86
2023/12/16 05:32:04;;;;;;;1.73;1.33;;;6.40;97.30;;;;;;4975163;28;20761;-87
2023/12/16 05:34:30;;;;;;;1.10;1.00;;;6.30;97.30;;;;;;4975126;28;20189;-86
2023/12/16 05:36:55;;;;;;;3.17;1.47;;;6.30;97.30;;;;;;4974781;28;20554;-87
2023/12/16 05:39:21;;;;;;;2.53;1.03;;;6.30;97.30;;;;;;4974942;28;20228;-86
2023/12/16 05:41:46;;;;;;;9.37;3.63;;;6.30;97.30;;;;;;4992353;28;20209;-86
2023/12/16 05:44:13;;;;;;;1.83;1.43;;;6.30;97.30;;;;;;4975034;28;20189;-86
2023/12/16 05:46:38;;;;;;;2.83;2.50;;;6.30;97.30;;;;;;4975013;28;20197;-87
2023/12/16 05:49:04;;;;;;;8.10;3.07;;;6.30;97.30;;;;;;4974821;28;20472;-86
2023/12/16 05:51:37;;;;;;;2.60;1.33;;;6.30;97.30;;;;;;4974665;28;20198;-86
2023/12/16 05:54:02;;;;;;;1.80;1.70;;;6.30;97.30;;;;;;4974627;28;20186;-86
2023/12/16 05:56:28;;;;;;;3.33;2.40;;;6.30;97.30;;;;;;4974782;28;20770;-87
2023/12/16 05:58:53;;;;;;;2.17;2.00;;;6.30;97.30;;;;;;4974630;28;20221;-86
2023/12/16 06:01:20;;;;;;;2.10;1.50;;;6.30;97.30;;;;;;4974282;28;20226;-85
2023/12/16 06:03:46;;;;;;;2.20;1.23;;;6.30;97.30;;;;;;4992155;28;20185;-86
2023/12/16 06:06:11;;;;;;;1.50;1.33;;;6.30;97.30;;;;;;4996156;28;20421;-86
2023/12/16 06:08:37;;;;;;;2.10;2.00;;;6.30;97.30;;;;;;4978220;28;20850;-87
2023/12/16 06:11:02;;;;;;;1.90;1.80;;;6.30;97.30;;;;;;4978786;28;20201;-86
2023/12/16 06:13:28;;;;;;;4.40;2.40;;;6.30;97.30;;;;;;4991993;28;20264;-86
2023/12/16 06:15:53;;;;;;;3.07;2.50;;;6.40;97.30;;;;;;4978250;28;20224;-85
2023/12/16 06:18:19;;;;;;;2.40;1.40;;;6.40;97.30;;;;;;4977647;28;20664;-86
2023/12/16 06:20:44;;;;;;;1.73;1.50;;;6.40;97.30;;;;;;4978152;28;20205;-86
2023/12/16 06:23:10;;;;;;;2.50;1.10;;;6.40;97.30;;;;;;4978342;28;20300;-86
2023/12/16 06:25:35;;;;;;;2.70;2.50;;;6.40;97.30;;;;;;4995330;28;20181;-86
2023/12/16 06:28:01;;;;;;;1.93;1.83;;;6.40;97.30;;;;;;4977878;28;20193;-87
2023/12/16 06:30:27;;;;;;;2.00;1.80;;;6.40;97.30;;;;;;4978076;28;20190;-89
2023/12/16 06:32:52;;;;;;;2.00;1.77;;;6.40;97.30;;;;;;4978069;28;20186;-86
2023/12/16 06:35:18;;;;;;;2.10;1.77;;;6.40;97.30;;;;;;4977900;28;20185;-87
2023/12/16 06:37:43;;;;;;;2.90;2.70;;;6.40;97.30;;;;;;4978388;28;20787;-86
2023/12/16 06:40:09;;;;;;;2.30;2.10;;;6.40;97.30;;;;;;4978332;28;20273;-87
2023/12/16 06:42:34;;;;;;;1.97;1.30;;;6.40;97.30;;;;;;4995368;28;20213;-87
2023/12/16 06:45:00;;;;;;;3.50;2.60;;;6.40;97.30;;;;;;4978062;28;20276;-87
2023/12/16 06:47:25;;;;;;;2.43;2.23;;;6.40;97.30;;;;;;4977717;28;20212;-86
2023/12/16 06:49:52;;;;;;;3.20;2.27;;;6.40;97.30;;;;;;4994620;28;20205;-87
2023/12/16 06:52:17;;;;;;;1.00;0.90;;;6.40;97.30;;;;;;4977957;28;20194;-87
2023/12/16 06:54:43;;;;;;;2.67;2.03;;;6.40;97.30;;;;;;4978011;28;20429;-87
2023/12/16 06:57:08;;;;;;;2.83;2.63;;;6.40;97.30;;;;;;4977645;28;20196;-86
2023/12/16 06:59:34;;;;;;;2.83;2.63;;;6.40;97.30;;;;;;4977636;28;20276;-87
2023/12/16 07:01:59;;;;;;;1.87;1.67;;;6.40;97.30;;;;;;4977489;28;20245;-87
2023/12/16 07:04:25;;;;;;;1.47;1.10;;;6.40;97.30;;;;;;4995051;28;20190;-86
2023/12/16 07:06:51;;;;;;;3.07;2.73;;;6.40;97.30;;;;;;4977572;28;20194;-86
2023/12/16 07:09:16;;;;;;;2.57;2.37;;;6.40;97.30;;;;;;4977574;28;20300;-86
2023/12/16 07:11:42;;;;;;;1.63;1.53;;;6.40;97.30;;;;;;4977005;28;20237;-86
2023/12/16 07:14:08;;;;;;;4.53;3.93;;;6.40;97.30;;;;;;4977540;28;20264;-86
2023/12/16 07:16:34;;;;;;;2.07;1.93;;;6.40;97.30;;;;;;4976871;28;20182;-86
2023/12/16 07:18:59;;;;;;;4.97;2.97;;;6.40;97.30;;;;;;4977376;28;20654;-86
2023/12/16 07:21:27;;;;;;;3.87;1.40;;;6.40;97.30;;;;;;4994406;28;20209;-86
2023/12/16 07:23:52;;;;;;;1.60;1.50;;;6.40;97.30;;;;;;4975384;28;20241;-86
2023/12/16 07:26:18;;;;;;;2.03;1.80;;;6.40;97.30;;;;;;4976127;28;20467;-86
2023/12/16 07:28:43;;;;;;;2.20;1.63;;;6.40;97.30;;;;;;4976313;28;20300;-87
2023/12/16 07:31:09;;;;;;;10.93;2.60;;;6.40;97.30;;;;;;4994010;28;20765;-86
2023/12/16 07:33:37;;;;;;;1.97;1.87;;;6.40;97.30;;;;;;4976703;28;20648;-86
2023/12/16 07:36:03;;;;;;;2.87;2.67;;;6.40;97.30;;;;;;4976948;28;20680;-86
2023/12/16 07:38:28;;;;;;;3.23;2.37;;;6.40;97.30;;;;;;4977058;28;20425;-87
2023/12/16 07:40:54;;;;;;;3.90;2.17;;;6.40;97.30;;;;;;4976760;28;20598;-87
2023/12/16 07:43:20;;;;;;;2.70;2.50;;;6.40;97.30;;;;;;4976865;28;20182;-86
2023/12/16 07:45:45;;;;;;;2.20;2.03;;;6.40;97.30;;;;;;4976775;28;20264;-87
2023/12/16 07:48:11;;;;;;;1.30;1.20;;;6.40;97.30;;;;;;4976900;28;20213;-87
2023/12/16 07:50:37;;;;;;;6.03;2.83;;;6.40;97.30;;;;;;4976487;28;20182;-87
2023/12/16 07:53:02;;;;;;;1.57;1.47;;;6.40;97.30;;;;;;4976616;28;20182;-87
2023/12/16 07:55:29;;;;;;;2.53;2.33;;;6.50;97.30;;;;;;4976666;28;20248;-87
2023/12/16 07:57:54;;;;;;;3.40;3.07;;;6.50;97.30;;;;;;4976728;28;20186;-86
2023/12/16 08:00:20;;;;;;;3.40;2.33;;;6.50;97.30;;;;;;4976722;28;20773;-86
2023/12/16 08:02:45;;;;;;;2.17;2.03;;;6.50;97.30;;;;;;4976333;28;20281;-87
2023/12/16 08:05:11;;;;;;;2.00;1.40;;;6.50;97.30;;;;;;4976706;28;20205;-87
2023/12/16 08:07:36;;;;;;;2.33;2.13;;;6.50;97.30;;;;;;4976575;28;20205;-86
2023/12/16 08:10:03;;;;;;;1.83;1.27;;;6.50;97.30;;;;;;4976444;28;20209;-87
2023/12/16 08:12:29;;;;;;;3.13;2.50;;;6.50;97.30;;;;;;4976620;28;20359;-87
2023/12/16 08:14:55;;;;;;;1.83;1.80;;;6.50;97.30;;;;;;4976715;28;21201;-87
2023/12/16 08:17:21;;;;;;;2.43;2.23;;;6.50;97.30;;;;;;4976635;28;20189;-86
2023/12/16 08:19:47;;;;;;;3.27;2.30;;;6.50;97.30;;;;;;4976550;28;20425;-87
2023/12/16 08:22:13;;;;;;;8.23;2.97;;;6.50;97.30;;;;;;4976247;28;20453;-87
2023/12/16 08:24:40;;;;;;;1.60;1.50;;;6.50;97.30;;;;;;4976636;28;20427;-87
2023/12/16 08:27:06;;;;;;;2.70;1.13;;;6.50;97.30;;;;;;4981591;28;20281;-87
2023/12/16 08:29:31;;;;;;;4.43;3.83;;;6.50;97.30;;;;;;4976175;28;20548;-87
2023/12/16 08:31:57;;;;;;;2.63;1.90;;;6.50;97.30;;;;;;4976474;28;20198;-87
2023/12/16 08:34:22;;;;;;;3.80;1.93;;;6.60;97.30;;;;;;4976081;28;20181;-87
2023/12/16 08:36:48;;;;;;;2.60;2.40;;;6.60;97.30;;;;;;4976292;28;20268;-87
2023/12/16 08:39:14;;;;;;;4.77;2.70;;;6.60;97.30;;;;;;4977982;28;20193;-87
2023/12/16 08:41:40;;;;;;;3.27;1.90;;;6.60;97.30;;;;;;4974886;28;20441;-87
2023/12/16 08:44:05;;;;;;;6.83;2.73;;;6.60;97.30;;;;;;4975284;28;20471;-86
2023/12/16 08:46:31;;;;;;;3.60;3.17;;;6.60;97.30;;;;;;4975575;28;20213;-87
2023/12/16 08:48:58;;;;;;;1.90;1.80;;;6.70;97.30;;;;;;4975596;28;20209;-87
2023/12/16 08:51:23;;;;;;;1.50;1.40;;;6.70;97.30;;;;;;4975491;28;20262;-87
2023/12/16 08:53:49;;;;;;;6.43;2.23;;;6.70;97.30;;;;;;4975722;28;20511;-87
2023/12/16 08:56:17;;;;;;;4.63;2.43;;;6.70;97.30;;;;;;4975450;28;20186;-87
2023/12/16 08:58:45;;;;;;;3.10;2.60;;;6.80;97.30;;;;;;4975245;28;20192;-87
2023/12/16 09:01:10;;;;;;;2.40;2.20;;;6.80;97.30;;;;;;4975449;28;20545;-87
2023/12/16 09:03:36;;;;;;;3.03;2.83;;;6.80;97.30;;;;;;4975266;28;20524;-88
2023/12/16 09:06:02;;;;;;;5.30;2.33;;;6.80;97.30;;;;;;4975570;28;20181;-87
2023/12/16 09:08:27;;;;;;;2.80;2.60;;;6.80;97.30;;;;;;4975311;28;21005;-85
2023/12/16 09:10:53;;;;;;;2.17;2.00;;;6.90;97.30;;;;;;4975294;28;20685;-87
2023/12/16 09:13:18;;;;;;;2.80;2.00;;;6.90;97.30;;;;;;4975195;28;20197;-86
2023/12/16 09:15:44;;;;;;;1.90;1.83;;;6.90;97.30;;;;;;4975264;28;20182;-87
2023/12/16 09:18:10;;;;;;;2.67;2.50;;;6.90;97.30;;;;;;4975138;28;20301;-87
2023/12/16 09:20:37;;;;;;;1.57;1.47;;;6.90;97.30;;;;;;4974900;28;20264;-86
2023/12/16 09:23:03;;;;;;;3.20;3.00;;;6.90;97.30;;;;;;4975075;28;20427;-87
2023/12/16 09:25:28;;;;;;;1.80;1.70;;;7.00;97.30;;;;;;4974826;28;20421;-86
2023/12/16 09:27:54;;;;;;;1.67;1.60;;;7.00;97.30;;;;;;4974847;28;20193;-87
2023/12/16 09:30:19;;;;;;;3.70;2.07;;;7.00;97.30;;;;;;4975117;28;20185;-85
2023/12/16 09:32:45;;;;;;;2.40;2.20;;;7.00;97.30;;;;;;4974992;28;20284;-87
2023/12/16 09:35:11;;;;;;;2.93;2.73;;;7.00;97.30;;;;;;4975163;28;20220;-87
2023/12/16 09:37:36;;;;;;;2.93;1.70;;;7.00;97.30;;;;;;4974481;28;20173;-86
2023/12/16 09:40:02;;;;;;;3.17;2.50;;;7.00;97.30;;;;;;4973074;28;20617;-87
2023/12/16 09:42:29;;;;;;;1.67;1.33;;;7.00;97.30;;;;;;4974523;28;20217;-87
2023/12/16 09:44:59;;;;;;;5.30;1.97;;;7.00;97.30;;;;;;4974469;28;20972;-87
2023/12/16 09:47:25;;;;;;;1.23;1.13;;;7.00;97.30;;;;;;4974860;28;20436;-87
2023/12/16 09:49:52;;;;;;;2.93;2.23;;;7.00;97.30;;;;;;4974517;28;20475;-87
2023/12/16 09:52:18;;;;;;;1.40;1.30;;;7.00;97.30;;;;;;4975171;28;20213;-87
2023/12/16 09:54:43;;;;;;;8.70;3.67;;;7.10;97.30;;;;;;4974654;28;20414;-87
2023/12/16 09:57:12;;;;;;;2.30;1.97;;;7.10;97.30;;;;;;4974337;28;20580;-87
2023/12/16 09:59:39;;;;;;;1.60;1.50;;;7.10;97.30;;;;;;4974752;28;20630;-86
2023/12/16 10:02:25;;;;;;;1.77;1.40;;;7.10;97.30;;;;;;4993753;28;20571;-87
2023/12/16 10:04:51;;;;;;;1.53;1.30;;;7.20;97.30;;;;;;4987895;28;20417;-87
2023/12/16 10:07:17;;;;;;;1.63;1.53;;;7.20;97.30;;;;;;4974046;28;20650;-87
2023/12/16 10:09:42;;;;;;;1.30;1.23;;;7.20;97.30;;;;;;4990649;28;20461;-87
2023/12/16 10:12:09;;;;;;;3.43;2.90;;;7.20;97.30;;;;;;4973873;28;20357;-86
2023/12/16 10:14:51;;;;;;;4.67;1.97;;;7.20;97.30;;;;;;4991751;28;20178;-86
2023/12/16 10:17:17;;;;;;;4.80;3.30;;;7.20;97.30;;;;;;4970814;28;20464;-88
2023/12/16 10:19:48;;;;;;;6.40;2.70;;;7.30;97.30;;;;;;4974199;28;20507;-88
2023/12/16 10:22:18;;;;;;;5.10;2.23;;;7.30;97.30;;;;;;4987518;28;20451;-87
2023/12/16 10:24:44;;;;;;;1.97;1.87;;;7.40;97.30;;;;;;4974312;28;20428;-87
2023/12/16 10:27:10;;;;;;;3.33;1.17;;;7.40;97.30;;;;;;4991897;28;20425;-87
2023/12/16 10:29:39;;;;;;;5.83;2.73;;;7.40;97.30;;;;;;4991575;28;20551;-87
2023/12/16 10:32:08;;;;;;;3.20;3.00;;;7.40;97.30;;;;;;4974105;28;20201;-87
2023/12/16 10:34:33;;;;;;;1.83;1.77;;;7.50;97.30;;;;;;4974124;28;20436;-87
2023/12/16 10:37:09;;;;;;;1.43;1.37;;;7.70;97.30;;;;;;4974342;28;20504;-87
2023/12/16 10:39:35;;;;;;;1.87;1.77;;;7.80;97.30;;;;;;4974475;28;20233;-87
2023/12/16 10:42:02;;;;;;;4.07;3.33;;;7.90;97.30;;;;;;4973884;28;20445;-87
2023/12/16 10:44:28;;;;;;;1.40;1.30;;;8.10;97.30;;;;;;4974218;28;20436;-88
2023/12/16 10:46:54;;;;;;;1.40;1.20;;;8.20;97.30;;;;;;4974381;28;20869;-88
2023/12/16 10:49:31;;;;;;;3.00;2.40;;;8.30;97.30;;;;;;4974067;28;20293;-85
2023/12/16 10:52:06;;;;;;;22.47;2.17;;;8.40;97.30;;;;;;4977410;28;20499;-87
2023/12/16 10:54:43;;;;;;;0.90;0.80;;;8.50;97.30;;;;;;4977787;28;20428;-87
2023/12/16 10:57:32;;;;;;;4.30;2.30;;;8.60;97.30;;;;;;4977714;28;20425;-88
2023/12/16 11:00:09;;;;;;;8.70;3.43;;;8.70;97.30;;;;;;4974930;28;20433;-87
2023/12/16 11:02:42;;;;;;;4.17;1.77;;;8.80;97.30;;;;;;4977246;28;20603;-86
2023/12/16 11:05:34;;;;;;;1.93;1.77;;;8.80;97.30;;;;;;4977804;28;20859;-86
2023/12/16 11:08:04;;;;;;;1.63;1.53;;;8.80;97.30;;;;;;4975406;28;20437;-87
2023/12/16 11:10:33;;;;;;;4.53;1.40;;;9.00;97.30;;;;;;4977689;28;20483;-87
2023/12/16 11:13:02;;;;;;;3.73;1.97;;;9.10;97.30;;;;;;4995286;28;20425;-88
2023/12/16 11:15:30;;;;;;;1.53;1.30;;;9.10;97.30;;;;;;4977620;28;20503;-88
2023/12/16 11:18:14;;;;;;;1.50;1.40;;;9.00;97.30;;;;;;4990233;28;20443;-86
2023/12/16 11:20:47;;;;;;;0.90;0.80;;;8.90;97.30;;;;;;4977414;28;20452;-87
2023/12/16 11:23:16;;;;;;;4.53;2.70;;;8.90;97.30;;;;;;4975654;28;21022;-87
2023/12/16 11:25:44;;;;;;;2.60;2.40;;;8.90;97.30;;;;;;4976664;28;20852;-88
2023/12/16 11:28:14;;;;;;;1.63;1.53;;;8.80;97.30;;;;;;4977285;28;20445;-87
2023/12/16 11:30:40;;;;;;;1.23;1.13;;;8.80;97.30;;;;;;4977182;28;20453;-89
2023/12/16 11:33:06;;;;;;;3.07;2.83;;;8.80;97.30;;;;;;4976945;28;20984;-88
2023/12/16 11:35:45;;;;;;;2.13;2.00;;;8.80;97.30;;;;;;4976767;28;20417;-88
2023/12/16 11:38:42;;;;;;;3.00;1.47;;;8.90;97.30;;;;;;4994544;28;20194;-88
2023/12/16 11:41:08;;;;;;;3.90;2.07;;;8.90;97.30;;;;;;4975605;28;20633;-88
2023/12/16 11:43:52;;;;;;;1.00;0.90;;;8.90;97.30;;;;;;4976752;28;20417;-88
2023/12/16 11:46:43;;;;;;;1.53;1.43;;;8.90;97.30;;;;;;4994357;28;20946;-88
2023/12/16 11:49:16;;;;;;;10.13;3.13;;;8.90;97.30;;;;;;4994168;28;20444;-88
2023/12/16 11:51:42;;;;;;;1.00;0.90;;;8.90;97.30;;;;;;4976649;28;20452;-87
2023/12/16 11:54:09;;;;;;;5.17;1.50;;;8.80;97.30;;;;;;4976568;28;20950;-87
2023/12/16 11:56:35;;;;;;;2.20;2.03;;;8.70;97.30;;;;;;4976777;28;20876;-87
2023/12/16 11:59:05;;;;;;;1.77;1.67;;;8.60;97.30;;;;;;4976618;28;20455;-87
2023/12/16 12:01:32;;;;;;;6.50;2.50;;;8.60;97.30;;;;;;4975573;28;20473;-88
2023/12/16 12:03:59;;;;;;;13.37;6.40;;;8.50;97.30;;;;;;4976497;28;20595;-87
2023/12/16 12:06:25;;;;;;;7.37;3.63;;;8.50;97.30;;;;;;4976083;28;20436;-88
2023/12/16 12:08:51;;;;;;;16.57;2.30;;;8.50;97.30;;;;;;4976293;28;20473;-88
2023/12/16 12:11:17;;;;;;;13.03;3.00;;;8.60;97.30;;;;;;4976580;28;20212;-87
2023/12/16 12:13:52;;;;;;;2.00;1.93;;;8.80;97.30;;;;;;4976002;28;20431;-87
2023/12/16 12:16:18;;;;;;;3.23;2.30;;;8.90;97.30;;;;;;4976772;28;20515;-87
2023/12/16 12:18:44;;;;;;;4.10;1.30;;;9.00;97.30;;;;;;4971474;28;20545;-87
2023/12/16 12:21:10;;;;;;;4.77;1.23;;;8.80;97.30;;;;;;4976163;28;20608;-87
2023/12/16 12:23:42;;;;;;;1.53;1.43;;;8.70;97.30;;;;;;4976606;28;20205;-88
2023/12/16 12:26:08;;;;;;;9.23;3.30;;;8.60;97.30;;;;;;4975924;28;20284;-87
2023/12/16 12:28:33;;;;;;;2.17;2.00;;;8.60;97.30;;;;;;4993273;28;20599;-88
2023/12/16 12:31:08;;;;;;;1.00;0.90;;;8.50;97.30;;;;;;4976140;28;20445;-87
2023/12/16 12:33:35;;;;;;;1.27;1.17;;;8.50;97.30;;;;;;5001570;23;20236;-85
2023/12/16 12:36:01;;;;;;;2.10;1.90;;;8.50;97.30;;;;;;5011380;28;20551;-87
2023/12/16 12:38:35;;;;;;;2.73;1.83;;;8.50;97.30;;;;;;4993391;28;20421;-86
2023/12/16 12:41:03;;;;;;;1.77;1.67;;;8.50;97.30;;;;;;4991408;28;20439;-85
2023/12/16 12:43:31;;;;;;;2.70;2.50;;;8.50;97.30;;;;;;4999420;28;20468;-85
2023/12/16 12:46:08;;;;;;;2.23;1.93;;;8.60;97.30;;;;;;4974943;28;20500;-85
2023/12/16 12:48:35;;;;;;;4.00;1.40;;;8.60;97.30;;;;;;4973340;28;20460;-86
2023/12/16 12:51:08;;;;;;;1.43;1.33;;;8.60;97.30;;;;;;4975196;28;20785;-86
2023/12/16 12:53:37;;;;;;;1.30;1.20;;;8.60;97.30;;;;;;4974624;28;20451;-88
2023/12/16 12:56:04;;;;;;;6.70;1.73;;;8.60;97.30;;;;;;4974868;28;20421;-86
2023/12/16 12:58:31;;;;;;;1.20;1.10;;;8.70;97.30;;;;;;4991940;28;20432;-85
2023/12/16 13:00:59;;;;;;;4.77;1.47;;;8.60;97.30;;;;;;4974845;28;20504;-85
2023/12/16 13:03:25;;;;;;;3.33;2.17;;;8.60;97.30;;;;;;4971791;28;20524;-85
2023/12/16 13:05:51;;;;;;;2.80;2.60;;;8.60;97.30;;;;;;4991873;28;20934;-85
2023/12/16 13:08:16;;;;;;;2.50;2.07;;;8.60;97.30;;;;;;4974518;28;20468;-85
2023/12/16 13:10:42;;;;;;;1.60;1.50;;;8.60;97.30;;;;;;4991914;28;20664;-85
2023/12/16 13:13:08;;;;;;;4.80;2.83;;;8.60;97.30;;;;;;4974016;28;20201;-85
2023/12/16 13:15:34;;;;;;;1.60;1.50;;;8.60;97.30;;;;;;4991674;28;20803;-85
2023/12/16 13:17:59;;;;;;;3.93;2.60;;;8.70;97.30;;;;;;4974384;28;20584;-86
2023/12/16 13:20:27;;;;;;;3.10;1.70;;;8.70;97.30;;;;;;4974586;28;20664;-85
2023/12/16 13:22:52;;;;;;;2.47;1.43;;;8.70;97.30;;;;;;4974742;28;20198;-85
2023/12/16 13:25:18;;;;;;;1.07;0.97;;;8.70;97.30;;;;;;4974329;28;20554;-85
2023/12/16 13:27:43;;;;;;;3.13;1.53;;;8.60;97.30;;;;;;4974134;28;20475;-86
2023/12/16 13:30:11;;;;;;;1.83;1.77;;;8.60;97.30;;;;;;4974162;28;20205;-85
2023/12/16 13:32:37;;;;;;;2.90;1.30;;;8.60;97.30;;;;;;4973748;28;20225;-86
2023/12/16 13:35:03;;;;;;;1.80;1.67;;;8.60;97.30;;;;;;4991627;28;20516;-85
2023/12/16 13:37:30;;;;;;;6.83;2.23;;;8.50;97.30;;;;;;4991357;28;20417;-86
2023/12/16 13:39:58;;;;;;;1.47;1.30;;;8.50;97.30;;;;;;4991794;28;20417;-85
2023/12/16 13:42:24;;;;;;;1.53;1.43;;;8.50;97.30;;;;;;4973681;28;20990;-85
2023/12/16 13:44:49;;;;;;;1.23;1.13;;;8.50;97.30;;;;;;4990657;28;20435;-86
2023/12/16 13:47:15;;;;;;;6.57;2.27;;;8.50;97.30;;;;;;4973620;28;20691;-82
2023/12/16 13:49:40;;;;;;;2.73;2.20;;;8.50;97.30;;;;;;4972911;28;20284;-85
2023/12/16 13:52:09;;;;;;;1.60;1.60;;;8.50;97.30;;;;;;4974130;28;20558;-85
2023/12/16 13:54:35;;;;;;;1.13;1.10;;;8.40;97.30;;;;;;4991559;28;20178;-85
2023/12/16 13:57:01;;;;;;;1.00;0.90;;;8.40;97.30;;;;;;4973971;28;20437;-85
2023/12/16 13:59:27;;;;;;;26.53;1.77;;;8.30;97.30;;;;;;4991416;28;20245;-85
2023/12/16 14:01:52;;;;;;;4.30;2.40;;;8.20;97.30;;;;;;4973858;28;20999;-86
2023/12/16 14:04:17;;;;;;;1.10;1.00;;;8.20;97.30;;;;;;4973743;28;20300;-85
2023/12/16 14:06:43;;;;;;;1.33;1.30;;;8.10;97.30;;;;;;4973783;28;20256;-84
2023/12/16 14:09:09;;;;;;;1.50;1.40;;;8.10;97.30;;;;;;4991694;28;20524;-85
2023/12/16 14:11:34;;;;;;;2.17;2.00;;;8.00;97.30;;;;;;4973547;28;20277;-85
2023/12/16 14:14:00;;;;;;;3.20;2.13;;;8.00;97.30;;;;;;4973992;28;20225;-84
2023/12/16 14:16:25;;;;;;;1.40;1.17;;;7.90;97.30;;;;;;4991222;28;20641;-85
2023/12/16 14:18:51;;;;;;;1.40;1.30;;;8.00;97.30;;;;;;4973888;28;20182;-85
2023/12/16 14:21:19;;;;;;;8.83;2.63;;;7.90;97.30;;;;;;4973938;28;20220;-86
2023/12/16 14:23:44;;;;;;;1.83;1.73;;;8.00;97.30;;;;;;4990973;28;20214;-86
2023/12/16 14:26:10;;;;;;;7.70;1.73;;;7.90;97.30;;;;;;4975897;28;20464;-85
2023/12/16 14:28:35;;;;;;;1.13;1.03;;;7.90;97.30;;;;;;4994844;28;20197;-85
2023/12/16 14:31:01;;;;;;;1.63;1.53;;;7.90;97.30;;;;;;4995110;28;20189;-85
2023/12/16 14:33:26;;;;;;;3.43;1.57;;;7.90;97.30;;;;;;4977283;28;20619;-85
2023/12/16 14:35:52;;;;;;;2.17;2.00;;;7.80;97.30;;;;;;4977677;28;20266;-85
2023/12/16 14:38:17;;;;;;;13.17;1.50;;;7.80;97.30;;;;;;4977186;28;20583;-85
2023/12/16 14:40:43;;;;;;;2.67;2.37;;;7.80;97.30;;;;;;4977420;28;20448;-87
2023/12/16 14:43:08;;;;;;;1.50;1.40;;;7.80;97.30;;;;;;4994772;28;20301;-86
2023/12/16 14:45:34;;;;;;;1.50;1.47;;;7.80;97.30;;;;;;4977667;28;20714;-86
2023/12/16 14:47:59;;;;;;;2.90;1.50;;;7.80;97.30;;;;;;4977516;28;20639;-85
2023/12/16 14:50:25;;;;;;;2.80;2.60;;;7.70;97.30;;;;;;4994904;28;20216;-84
2023/12/16 14:52:50;;;;;;;5.13;1.67;;;7.70;97.30;;;;;;4977150;28;20618;-85
2023/12/16 14:55:16;;;;;;;1.57;1.47;;;7.70;97.30;;;;;;4977438;28;20205;-85
2023/12/16 14:57:42;;;;;;;2.60;1.73;;;7.70;97.30;;;;;;4990674;28;20174;-86
2023/12/16 15:00:08;;;;;;;1.10;1.00;;;7.70;97.30;;;;;;4978515;28;20272;-85
2023/12/16 15:02:34;;;;;;;2.70;1.90;;;7.70;97.30;;;;;;4977293;28;20309;-86
2023/12/16 15:05:01;;;;;;;9.10;1.53;;;7.70;97.30;;;;;;4978586;28;20463;-85
2023/12/16 15:07:27;;;;;;;2.50;2.30;;;7.70;97.30;;;;;;4995902;28;20184;-85
2023/12/16 15:09:53;;;;;;;4.40;1.60;;;7.70;97.30;;;;;;4978993;28;20472;-86
2023/12/16 15:12:19;;;;;;;1.73;1.63;;;7.70;97.30;;;;;;4980174;28;20209;-85
2023/12/16 15:14:45;;;;;;;1.10;1.00;;;7.70;97.30;;;;;;4990080;28;20442;-87
2023/12/16 15:17:11;;;;;;;1.40;1.30;;;7.70;97.30;;;;;;4998352;28;20196;-88
2023/12/16 15:19:37;;;;;;;2.73;2.53;;;7.70;97.30;;;;;;4999639;28;20198;-87
2023/12/16 15:22:03;;;;;;;1.53;1.43;;;7.70;97.30;;;;;;4998972;28;20444;-85
2023/12/16 15:24:28;;;;;;;1.17;1.07;;;7.70;97.30;;;;;;4998896;28;20285;-87
2023/12/16 15:26:54;;;;;;;1.23;1.20;;;7.70;97.30;;;;;;5016118;28;20425;-86
2023/12/16 15:29:19;;;;;;;2.37;2.17;;;7.70;97.30;;;;;;4998779;28;20261;-88
2023/12/16 15:31:49;;;;;;;1.13;1.03;;;7.60;97.30;;;;;;4998813;28;20174;-87
2023/12/16 15:34:16;;;;;;;2.00;1.70;;;7.60;97.30;;;;;;4998570;28;20228;-87
2023/12/16 15:36:41;;;;;;;1.90;1.80;;;7.60;97.30;;;;;;4997957;28;20429;-87
2023/12/16 15:39:11;;;;;;;2.30;2.10;;;7.60;97.30;;;;;;4998086;28;20732;-85
2023/12/16 15:41:37;;;;;;;7.20;3.40;;;7.60;97.30;;;;;;4975641;28;20192;-85
2023/12/16 15:44:07;;;;;;;3.13;2.93;;;7.60;97.30;;;;;;4993742;28;20465;-88
2023/12/16 15:46:33;;;;;;;2.57;2.37;;;7.70;97.30;;;;;;4975985;28;20427;-85
2023/12/16 15:48:59;;;;;;;5.43;2.43;;;7.70;97.30;;;;;;4976039;28;20456;-85
2023/12/16 15:51:25;;;;;;;1.60;1.50;;;7.70;97.30;;;;;;4975454;28;20958;-85
2023/12/16 15:53:52;;;;;;;3.50;2.60;;;7.70;97.30;;;;;;4992923;28;20437;-85
2023/12/16 15:56:17;;;;;;;2.50;1.93;;;7.70;97.30;;;;;;4975980;28;20428;-85
2023/12/16 15:58:43;;;;;;;1.50;1.23;;;7.70;97.30;;;;;;4975896;28;20437;-86
2023/12/16 16:01:08;;;;;;;2.87;2.17;;;7.70;97.30;;;;;;4976808;28;20566;-85
2023/12/16 16:03:35;;;;;;;1.20;1.10;;;7.70;97.30;;;;;;4975457;28;20289;-85
2023/12/16 16:06:00;;;;;;;1.20;1.10;;;7.70;97.30;;;;;;4975381;28;20272;-86
2023/12/16 16:08:26;;;;;;;1.20;1.10;;;7.70;97.30;;;;;;4975489;28;20556;-85
2023/12/16 16:10:51;;;;;;;2.23;2.00;;;7.70;97.30;;;;;;4992998;28;20182;-87
2023/12/16 16:13:17;;;;;;;2.17;2.00;;;7.70;97.30;;;;;;4975265;28;20209;-86
2023/12/16 16:15:44;;;;;;;1.83;1.73;;;7.70;97.30;;;;;;4975465;28;20190;-86
2023/12/16 16:18:10;;;;;;;1.57;1.47;;;7.70;97.30;;;;;;4975218;28;20399;-85
2023/12/16 16:20:36;;;;;;;1.27;0.97;;;7.70;97.30;;;;;;5000111;28;20425;-85
2023/12/16 16:23:04;;;;;;;1.23;1.13;;;7.70;97.30;;;;;;4975387;28;20441;-85
2023/12/16 16:25:31;;;;;;;3.60;1.63;;;7.70;97.30;;;;;;4991630;28;20492;-85
2023/12/16 16:27:57;;;;;;;2.40;1.70;;;7.70;97.30;;;;;;4975189;28;20429;-86
2023/12/16 16:30:22;;;;;;;6.93;2.47;;;7.70;97.30;;;;;;4975234;28;20527;-84
2023/12/16 16:32:48;;;;;;;1.87;1.77;;;7.60;97.30;;;;;;4974824;28;20229;-87
2023/12/16 16:35:13;;;;;;;1.30;1.20;;;7.70;97.30;;;;;;4974900;28;20210;-85
2023/12/16 16:37:38;;;;;;;1.43;1.30;;;7.60;97.30;;;;;;4974965;28;20188;-85
2023/12/16 16:40:05;;;;;;;12.83;3.10;;;7.70;97.30;;;;;;4992488;28;20204;-84
2023/12/16 16:42:31;;;;;;;2.30;2.13;;;7.70;97.30;;;;;;4974896;28;20205;-85
2023/12/16 16:44:57;;;;;;;1.60;1.50;;;7.60;97.30;;;;;;4974698;28;20433;-85
2023/12/16 16:47:22;;;;;;;1.10;1.00;;;7.60;97.30;;;;;;4974588;28;20425;-85
2023/12/16 16:49:48;;;;;;;6.03;2.07;;;7.60;97.30;;;;;;4974418;28;20514;-85
2023/12/16 16:52:13;;;;;;;1.13;1.03;;;7.60;97.30;;;;;;4975067;28;20184;-85
2023/12/16 16:54:39;;;;;;;1.60;1.50;;;7.60;97.30;;;;;;4974700;28;20295;-86
2023/12/16 16:57:05;;;;;;;1.50;1.43;;;7.60;97.30;;;;;;4974839;28;20190;-85
2023/12/16 16:59:31;;;;;;;1.30;1.20;;;7.60;97.30;;;;;;4974327;28;20186;-84
2023/12/16 17:01:57;;;;;;;1.47;1.30;;;7.60;97.30;;;;;;4974526;28;20592;-84
2023/12/16 17:04:22;;;;;;;1.77;1.30;;;7.60;97.30;;;;;;4974141;28;20592;-87
2023/12/16 17:06:48;;;;;;;0.90;0.80;;;7.60;97.30;;;;;;4974452;28;20193;-85
2023/12/16 17:09:13;;;;;;;3.13;2.93;;;7.60;97.30;;;;;;4974730;28;20229;-86
2023/12/16 17:11:40;;;;;;;1.40;1.30;;;7.60;97.30;;;;;;4974556;28;20833;-86
2023/12/16 17:14:09;;;;;;;1.03;0.93;;;7.60;97.30;;;;;;4991820;28;20236;-86
2023/12/16 17:16:35;;;;;;;0.90;0.80;;;7.60;97.30;;;;;;4991873;28;20503;-83
2023/12/16 17:19:00;;;;;;;1.27;1.17;;;7.60;97.30;;;;;;4974461;28;20963;-87
2023/12/16 17:21:26;;;;;;;1.37;1.27;;;7.60;97.30;;;;;;4991816;28;20469;-84
2023/12/16 17:23:51;;;;;;;2.33;2.13;;;7.60;97.30;;;;;;4974417;28;20520;-86
2023/12/16 17:26:17;;;;;;;1.07;1.00;;;7.60;97.30;;;;;;4974436;28;20224;-84
2023/12/16 17:28:42;;;;;;;4.30;1.93;;;7.60;97.30;;;;;;4975261;28;20210;-85
2023/12/16 17:31:08;;;;;;;1.40;1.30;;;7.60;97.30;;;;;;4975650;28;20174;-87
2023/12/16 17:33:33;;;;;;;2.70;2.50;;;7.50;97.30;;;;;;4975186;28;20760;-85
2023/12/16 17:36:03;;;;;;;1.30;1.20;;;7.60;97.30;;;;;;4976125;28;20226;-86
2023/12/16 17:38:29;;;;;;;2.13;1.70;;;7.50;97.30;;;;;;4973486;28;20305;-89
2023/12/16 17:40:55;;;;;;;1.67;1.57;;;7.50;97.30;;;;;;4974473;28;20505;-84
2023/12/16 17:43:21;;;;;;;2.80;1.50;;;7.50;97.30;;;;;;4973089;28;20201;-86
2023/12/16 17:45:50;;;;;;;1.93;1.87;;;7.50;97.30;;;;;;4973876;28;20564;-86
2023/12/16 17:48:18;;;;;;;2.03;1.90;;;7.50;97.30;;;;;;4974166;28;20424;-86
2023/12/16 17:50:45;;;;;;;1.23;1.13;;;7.50;97.30;;;;;;4973921;28;20461;-86
2023/12/16 17:53:11;;;;;;;1.63;1.57;;;7.50;97.30;;;;;;4991830;28;20445;-85
2023/12/16 17:55:36;;;;;;;4.43;2.07;;;7.50;97.30;;;;;;4974297;28;20489;-86
2023/12/16 17:58:02;;;;;;;2.83;1.97;;;7.50;97.30;;;;;;4991338;28;20545;-86